createdAt,value
2018-05-25T00:02:16.567Z,2.50
2018-05-25T00:04:44.113Z,3.40
2018-05-25T00:07:12.391Z,2.90
2018-05-25T00:09:39.848Z,2.97
2018-05-25T00:12:07.308Z,3.40
2018-05-25T00:14:34.800Z,3.10
2018-05-25T00:17:02.261Z,3.20
2018-05-25T00:19:29.724Z,3.00
2018-05-25T00:21:57.176Z,2.60
2018-05-25T00:24:24.638Z,3.10
2018-05-25T00:26:52.091Z,3.20
2018-05-25T00:29:19.559Z,3.37
2018-05-25T00:31:47.017Z,3.17
2018-05-25T00:34:15.288Z,3.30
2018-05-25T00:36:42.748Z,3.47
2018-05-25T00:39:10.893Z,2.97
2018-05-25T00:41:39.708Z,3.60
2018-05-25T00:44:07.154Z,3.03
2018-05-25T00:46:34.599Z,3.07
2018-05-25T00:49:02.077Z,3.90
2018-05-25T00:51:29.535Z,3.03
2018-05-25T00:53:56.981Z,2.90
2018-05-25T00:56:24.453Z,3.00
2018-05-25T00:58:51.908Z,3.37
2018-05-25T01:01:19.362Z,3.30
2018-05-25T01:03:46.820Z,3.17
2018-05-25T01:06:15.062Z,3.87
2018-05-25T01:08:43.283Z,3.27
2018-05-25T01:11:11.784Z,3.03
2018-05-25T01:13:39.963Z,3.80
2018-05-25T01:16:08.171Z,2.97
2018-05-25T01:18:35.647Z,3.67
2018-05-25T01:21:03.873Z,3.13
2018-05-25T01:23:31.346Z,3.13
2018-05-25T01:25:58.793Z,3.13
2018-05-25T01:28:26.263Z,3.30
2018-05-25T01:30:53.728Z,3.10
2018-05-25T01:33:21.195Z,3.37
2018-05-25T01:35:48.667Z,3.37
2018-05-25T01:38:16.121Z,3.40
2018-05-25T01:40:44.368Z,3.00
2018-05-25T01:43:11.848Z,3.23
2018-05-25T01:45:39.839Z,3.90
2018-05-25T01:48:07.302Z,3.27
2018-05-25T01:50:34.749Z,3.60
2018-05-25T01:53:02.963Z,3.50
2018-05-25T01:55:31.218Z,3.60
2018-05-25T01:57:58.659Z,3.17
2018-05-25T02:00:26.127Z,3.60
2018-05-25T02:02:54.351Z,3.97
2018-05-25T02:05:21.859Z,4.10
2018-05-25T02:07:49.338Z,4.60
2018-05-25T02:10:16.805Z,4.13
2018-05-25T02:12:44.326Z,3.40
2018-05-25T02:15:11.775Z,2.90
2018-05-25T02:17:39.775Z,3.47
2018-05-25T02:20:07.235Z,3.90
2018-05-25T02:22:34.685Z,3.60
2018-05-25T02:25:02.146Z,2.90
2018-05-25T02:27:29.633Z,4.00
2018-05-25T02:29:57.089Z,3.30
2018-05-25T02:32:24.541Z,4.00
2018-05-25T02:34:52.068Z,3.80
2018-05-25T02:37:19.554Z,3.63
2018-05-25T02:39:47.785Z,3.20
2018-05-25T02:42:15.254Z,3.47
2018-05-25T02:44:42.735Z,3.43
2018-05-25T02:47:11.054Z,3.47
2018-05-25T02:49:38.516Z,3.27
2018-05-25T02:52:05.975Z,3.00
2018-05-25T02:54:33.432Z,3.50
2018-05-25T02:57:00.928Z,3.97
2018-05-25T02:59:28.386Z,4.40
2018-05-25T03:01:55.850Z,3.83
2018-05-25T03:04:24.099Z,3.63
2018-05-25T03:06:51.557Z,4.37
2018-05-25T03:09:19.039Z,4.20
2018-05-25T03:11:46.502Z,3.77
2018-05-25T03:14:14.749Z,3.83
2018-05-25T03:16:42.225Z,3.97
2018-05-25T03:19:10.132Z,4.30
2018-05-25T03:21:37.599Z,4.30
2018-05-25T03:24:05.048Z,4.20
2018-05-25T03:26:32.507Z,4.10
2018-05-25T03:28:59.978Z,4.77
2018-05-25T03:31:27.445Z,4.10
2018-05-25T03:33:55.669Z,3.90
2018-05-25T03:36:23.142Z,3.80
2018-05-25T03:38:50.614Z,3.87
2018-05-25T03:41:18.081Z,4.13
2018-05-25T03:43:45.553Z,4.30
2018-05-25T03:46:13.042Z,4.13
2018-05-25T03:48:41.105Z,3.77
2018-05-25T03:51:09.983Z,4.33
2018-05-25T03:53:37.446Z,4.50
2018-05-25T03:56:04.902Z,4.87
2018-05-25T03:58:44.427Z,4.07
2018-05-25T04:01:23.642Z,3.97
2018-05-25T04:03:51.139Z,4.07
2018-05-25T04:06:18.598Z,4.37
2018-05-25T04:08:46.072Z,4.43
2018-05-25T04:11:13.554Z,3.93
2018-05-25T04:13:41.024Z,4.27
2018-05-25T04:16:09.799Z,3.63
2018-05-25T04:18:37.272Z,4.17
2018-05-25T04:21:04.723Z,3.80
2018-05-25T04:23:32.204Z,3.50
2018-05-25T04:25:59.675Z,3.73
2018-05-25T04:28:27.132Z,3.90
2018-05-25T04:30:54.593Z,3.90
2018-05-25T04:33:22.058Z,4.57
2018-05-25T04:35:49.532Z,4.37
2018-05-25T04:38:17.015Z,4.20
2018-05-25T04:40:44.486Z,5.10
2018-05-25T04:43:11.970Z,4.80
2018-05-25T04:45:39.964Z,5.10
2018-05-25T04:48:07.443Z,5.33
2018-05-25T04:50:34.900Z,5.50
2018-05-25T04:53:02.347Z,4.53
2018-05-25T04:55:29.840Z,4.50
2018-05-25T04:57:58.204Z,4.60
2018-05-25T05:00:25.681Z,3.90
2018-05-25T05:02:54.042Z,4.70
2018-05-25T05:05:22.273Z,4.53
2018-05-25T05:07:49.813Z,4.70
2018-05-25T05:10:17.269Z,4.47
2018-05-25T05:12:44.740Z,4.70
2018-05-25T05:15:12.226Z,4.40
2018-05-25T05:17:40.540Z,4.50
2018-05-25T05:20:08.002Z,4.80
2018-05-25T05:22:35.472Z,4.70
2018-05-25T05:25:02.939Z,4.20
2018-05-25T05:30:05.220Z,3.90
2018-05-25T05:32:32.671Z,4.50
2018-05-25T05:35:00.129Z,4.43
2018-05-25T05:37:27.596Z,4.33
2018-05-25T05:39:55.056Z,5.03
2018-05-25T05:42:22.533Z,5.17
2018-05-25T05:44:50.007Z,4.57
2018-05-25T05:47:17.481Z,4.77
2018-05-25T05:49:44.949Z,4.20
2018-05-25T05:52:12.426Z,3.97
2018-05-25T05:54:40.404Z,4.60
2018-05-25T05:57:08.636Z,4.87
2018-05-25T05:59:36.125Z,5.80
2018-05-25T06:02:03.600Z,4.50
2018-05-25T06:04:31.065Z,4.40
2018-05-25T06:06:58.529Z,4.60
2018-05-25T06:09:26.773Z,4.43
2018-05-25T06:11:54.240Z,4.00
2018-05-25T06:14:21.772Z,4.80
2018-05-25T06:16:49.289Z,4.57
2018-05-25T06:19:17.529Z,4.10
2018-05-25T06:21:45.009Z,4.50
2018-05-25T06:24:12.493Z,4.33
2018-05-25T06:26:39.975Z,4.50
2018-05-25T06:29:07.433Z,5.33
2018-05-25T06:31:34.988Z,4.67
2018-05-25T06:34:03.893Z,4.90
2018-05-25T06:36:31.390Z,4.10
2018-05-25T06:38:59.614Z,4.23
2018-05-25T06:41:27.109Z,4.57
2018-05-25T06:43:54.584Z,4.27
2018-05-25T06:46:22.044Z,4.07
2018-05-25T06:48:50.300Z,4.77
2018-05-25T06:51:17.777Z,3.43
2018-05-25T06:53:45.281Z,4.50
2018-05-25T06:56:12.769Z,5.03
2018-05-25T06:58:40.553Z,4.70
2018-05-25T07:01:08.057Z,4.40
2018-05-25T07:03:36.326Z,4.30
2018-05-25T07:06:03.819Z,4.67
2018-05-25T07:08:31.317Z,4.00
2018-05-25T07:10:58.797Z,3.80
2018-05-25T07:13:26.312Z,4.60
2018-05-25T07:15:53.821Z,4.57
2018-05-25T07:18:21.309Z,4.70
2018-05-25T07:20:48.807Z,5.00
2018-05-25T07:23:16.295Z,4.73
2018-05-25T07:25:43.803Z,5.07
2018-05-25T07:28:12.058Z,4.60
2018-05-25T07:30:39.590Z,4.30
2018-05-25T07:33:07.090Z,5.43
2018-05-25T07:35:35.361Z,4.77
2018-05-25T07:38:02.865Z,5.00
2018-05-25T07:40:31.111Z,3.50
2018-05-25T07:42:58.625Z,4.30
2018-05-25T07:45:26.133Z,4.83
2018-05-25T07:47:54.395Z,5.17
2018-05-25T07:50:21.867Z,4.90
2018-05-25T07:52:49.345Z,4.77
2018-05-25T07:55:16.824Z,4.80
2018-05-25T07:57:44.319Z,4.80
2018-05-25T08:00:11.802Z,4.50
2018-05-25T08:02:39.288Z,4.93
2018-05-25T08:05:06.776Z,4.60
2018-05-25T08:07:34.275Z,5.07
2018-05-25T08:10:01.789Z,4.73
2018-05-25T08:12:30.039Z,5.37
2018-05-25T08:14:57.513Z,5.00
2018-05-25T08:17:25.031Z,4.80
2018-05-25T08:19:52.495Z,3.83
2018-05-25T08:22:19.990Z,4.53
2018-05-25T08:24:47.464Z,4.00
2018-05-25T08:27:14.944Z,4.77
2018-05-25T08:29:42.417Z,3.97
2018-05-25T08:32:10.316Z,4.30
2018-05-25T08:34:39.605Z,4.47
2018-05-25T08:37:07.083Z,4.10
2018-05-25T08:39:34.603Z,4.40
2018-05-25T08:42:02.067Z,5.20
2018-05-25T08:44:29.556Z,4.07
2018-05-25T08:46:57.040Z,4.30
2018-05-25T08:49:24.533Z,4.20
2018-05-25T08:51:52.001Z,4.17
2018-05-25T08:54:19.485Z,3.90
2018-05-25T08:56:46.965Z,3.40
2018-05-25T08:59:14.474Z,3.60
2018-05-25T09:01:41.957Z,5.37
2018-05-25T09:04:09.952Z,4.70
2018-05-25T09:06:37.438Z,4.47
2018-05-25T09:09:05.751Z,3.60
2018-05-25T09:11:33.234Z,3.40
2018-05-25T09:14:00.728Z,3.80
2018-05-25T09:16:28.990Z,3.90
2018-05-25T09:18:57.273Z,3.80
2018-05-25T09:21:24.798Z,3.60
2018-05-25T09:23:52.328Z,3.70
2018-05-25T09:26:19.855Z,3.47
2018-05-25T09:28:47.382Z,3.10
2018-05-25T09:31:14.889Z,3.57
2018-05-25T09:33:42.369Z,3.10
2018-05-25T09:36:10.424Z,4.73
2018-05-25T09:38:38.702Z,4.37
2018-05-25T09:41:06.232Z,3.50
2018-05-25T09:43:33.727Z,3.17
2018-05-25T09:46:01.257Z,3.47
2018-05-25T09:48:28.753Z,3.67
2018-05-25T09:50:56.262Z,2.97
2018-05-25T09:53:23.781Z,3.30
2018-05-25T09:55:51.286Z,3.13
2018-05-25T09:58:19.759Z,3.30
2018-05-25T10:00:47.273Z,3.10
2018-05-25T10:03:14.788Z,3.03
2018-05-25T10:05:42.324Z,3.37
2018-05-25T10:08:10.062Z,3.20
2018-05-25T10:10:37.590Z,3.33
2018-05-25T10:13:05.110Z,3.17
2018-05-25T10:15:32.624Z,2.90
2018-05-25T10:18:00.169Z,3.50
2018-05-25T10:20:27.675Z,3.50
2018-05-25T10:22:55.955Z,3.50
2018-05-25T10:25:23.512Z,2.87
2018-05-25T10:27:51.797Z,2.77
2018-05-25T10:30:19.302Z,3.20
2018-05-25T10:32:46.830Z,3.80
2018-05-25T10:37:49.059Z,3.67
2018-05-25T10:40:16.591Z,2.70
2018-05-25T10:42:44.133Z,3.13
2018-05-25T10:45:12.433Z,3.63
2018-05-25T10:47:40.578Z,3.53
2018-05-25T10:50:08.110Z,3.97
2018-05-25T10:52:35.657Z,3.93
2018-05-25T10:55:03.177Z,3.60
2018-05-25T10:57:31.480Z,3.70
2018-05-25T10:59:59.777Z,3.80
2018-05-25T11:02:27.286Z,3.60
2018-05-25T11:04:54.836Z,3.20
2018-05-25T11:07:22.337Z,3.13
2018-05-25T11:09:50.618Z,3.23
2018-05-25T11:12:18.147Z,3.60
2018-05-25T11:14:45.675Z,3.80
2018-05-25T11:17:13.192Z,3.50
2018-05-25T11:19:41.382Z,3.67
2018-05-25T11:22:08.938Z,3.23
2018-05-25T11:24:36.822Z,4.00
2018-05-25T11:27:04.441Z,3.30
2018-05-25T11:29:31.906Z,3.43
2018-05-25T11:31:59.433Z,3.37
2018-05-25T11:34:27.738Z,3.30
2018-05-25T11:36:55.310Z,2.93
2018-05-25T11:39:23.614Z,3.23
2018-05-25T11:41:51.902Z,3.93
2018-05-25T11:44:19.438Z,3.30
2018-05-25T11:46:46.978Z,3.70
2018-05-25T11:49:14.505Z,3.30
2018-05-25T11:51:42.050Z,2.83
2018-05-25T11:54:10.351Z,3.10
2018-05-25T11:56:38.644Z,3.63
2018-05-25T11:59:06.945Z,3.47
2018-05-25T12:01:34.462Z,3.53
2018-05-25T12:04:01.997Z,2.93
2018-05-25T12:06:29.539Z,3.10
2018-05-25T12:08:57.079Z,3.43
2018-05-25T12:11:25.375Z,3.37
2018-05-25T12:13:52.913Z,2.60
2018-05-25T12:16:20.502Z,2.93
2018-05-25T12:18:48.010Z,3.20
2018-05-25T12:21:15.542Z,2.67
2018-05-25T12:23:43.053Z,3.50
2018-05-25T12:26:11.412Z,2.90
2018-05-25T12:28:40.454Z,3.20
2018-05-25T12:31:07.996Z,2.87
2018-05-25T12:33:35.516Z,2.73
2018-05-25T12:36:03.196Z,3.03
2018-05-25T12:38:31.464Z,3.33
2018-05-25T12:40:59.013Z,2.90
2018-05-25T12:43:28.197Z,3.20
2018-05-25T12:45:56.511Z,3.63
2018-05-25T12:50:58.146Z,3.57
2018-05-25T12:53:25.685Z,2.70
2018-05-25T12:55:53.234Z,2.90
2018-05-25T12:58:20.792Z,3.17
2018-05-25T13:00:48.340Z,3.10
2018-05-25T13:03:15.857Z,3.40
2018-05-25T13:05:44.262Z,2.90
2018-05-25T13:08:11.834Z,2.73
2018-05-25T13:10:39.772Z,3.10
2018-05-25T13:13:07.331Z,3.63
2018-05-25T13:15:34.864Z,2.93
2018-05-25T13:18:02.431Z,3.43
2018-05-25T13:20:30.003Z,2.87
2018-05-25T13:22:57.550Z,3.10
2018-05-25T13:25:25.860Z,3.30
2018-05-25T13:27:53.414Z,3.07
2018-05-25T13:30:20.933Z,3.10
2018-05-25T13:32:48.475Z,3.00
2018-05-25T13:35:16.029Z,3.63
2018-05-25T13:37:43.590Z,3.50
2018-05-25T13:40:11.332Z,3.10
2018-05-25T13:42:38.944Z,3.13
2018-05-25T13:45:06.489Z,3.40
2018-05-25T13:47:34.052Z,3.20
2018-05-25T13:50:01.601Z,4.23
2018-05-25T13:52:29.180Z,3.53
2018-05-25T13:54:57.513Z,3.87
2018-05-25T13:57:25.025Z,3.40
2018-05-25T13:59:52.575Z,3.93
2018-05-25T14:02:20.114Z,3.30
2018-05-25T14:04:47.662Z,3.33
2018-05-25T14:07:15.231Z,3.57
2018-05-25T14:09:42.803Z,3.30
2018-05-25T14:12:10.362Z,2.77
2018-05-25T14:14:38.647Z,2.80
2018-05-25T14:17:06.166Z,3.60
2018-05-25T14:19:34.458Z,3.27
2018-05-25T14:22:02.772Z,3.40
2018-05-25T14:24:31.072Z,3.03
2018-05-25T14:26:59.405Z,3.20
2018-05-25T14:29:26.937Z,3.33
2018-05-25T14:31:55.274Z,2.60
2018-05-25T14:34:22.804Z,3.50
2018-05-25T14:36:50.340Z,3.13
2018-05-25T14:39:17.873Z,3.20
2018-05-25T14:41:45.385Z,3.30
2018-05-25T14:44:13.681Z,3.03
2018-05-25T14:46:42.008Z,2.70
2018-05-25T14:49:09.815Z,2.87
2018-05-25T14:51:37.372Z,3.27
2018-05-25T14:54:04.912Z,3.30
2018-05-25T14:56:32.477Z,3.43
2018-05-25T14:59:00.033Z,2.93
2018-05-25T15:01:27.526Z,3.80
2018-05-25T15:03:55.040Z,3.37
2018-05-25T15:06:22.606Z,3.20
2018-05-25T15:08:50.154Z,3.30
2018-05-25T15:11:18.463Z,3.00
2018-05-25T15:13:46.031Z,3.37
2018-05-25T15:16:14.341Z,3.60
2018-05-25T15:18:42.650Z,3.07
2018-05-25T15:21:10.833Z,3.13
2018-05-25T15:23:38.329Z,3.07
2018-05-25T15:26:06.652Z,3.23
2018-05-25T15:28:34.192Z,3.60
2018-05-25T15:31:01.870Z,3.23
2018-05-25T15:33:29.267Z,3.80
2018-05-25T15:35:56.824Z,3.10
2018-05-25T15:38:24.390Z,3.27
2018-05-25T15:40:51.974Z,3.53
2018-05-25T15:43:19.509Z,3.27
2018-05-25T15:45:47.824Z,3.23
2018-05-25T15:48:15.371Z,2.50
2018-05-25T15:50:43.679Z,2.87
2018-05-25T15:53:12.156Z,3.13
2018-05-25T15:55:40.413Z,3.17
2018-05-25T15:58:08.707Z,2.50
2018-05-25T16:00:37.006Z,2.50
2018-05-25T16:03:05.311Z,2.47
2018-05-25T16:05:32.863Z,2.50
2018-05-25T16:08:01.140Z,3.30
2018-05-25T16:10:28.684Z,2.90
2018-05-25T16:12:56.954Z,5.10
2018-05-25T16:15:24.536Z,3.30
2018-05-25T16:17:52.071Z,3.10
2018-05-25T16:20:20.491Z,3.93
2018-05-25T16:22:48.043Z,4.23
2018-05-25T16:25:16.350Z,3.80
2018-05-25T16:27:44.662Z,3.40
2018-05-25T16:30:12.991Z,6.37
2018-05-25T16:32:42.366Z,9.00
2018-05-25T16:35:10.228Z,15.20
2018-05-25T16:37:38.544Z,18.87
2018-05-25T16:40:06.075Z,18.00
2018-05-25T16:42:33.621Z,4.20
2018-05-25T16:45:01.175Z,5.37
2018-05-25T16:47:28.724Z,5.20
2018-05-25T16:49:56.253Z,3.70
2018-05-25T16:52:23.815Z,3.33
2018-05-25T16:54:51.349Z,2.57
2018-05-25T16:57:19.683Z,2.27
2018-05-25T16:59:47.205Z,2.70
2018-05-25T17:02:14.742Z,3.33
2018-05-25T17:04:42.278Z,2.50
2018-05-25T17:07:10.322Z,2.60
2018-05-25T17:09:38.604Z,2.40
2018-05-25T17:12:06.907Z,2.37
2018-05-25T17:14:35.401Z,2.47
2018-05-25T17:17:03.147Z,2.67
2018-05-25T17:19:30.690Z,2.60
2018-05-25T17:21:59.013Z,2.03
2018-05-25T17:24:26.576Z,1.90
2018-05-25T17:26:54.077Z,2.63
2018-05-25T17:29:21.603Z,2.20
2018-05-25T17:31:49.184Z,2.20
2018-05-25T17:34:16.706Z,2.10
2018-05-25T17:36:44.258Z,2.10
2018-05-25T17:39:11.797Z,1.90
2018-05-25T17:41:39.614Z,2.50
2018-05-25T17:44:07.135Z,2.43
2018-05-25T17:46:34.670Z,2.20
2018-05-25T17:49:02.182Z,2.53
2018-05-25T17:51:29.713Z,1.93
2018-05-25T17:53:57.981Z,2.60
2018-05-25T17:56:25.526Z,2.63
2018-05-25T17:58:53.047Z,2.33
2018-05-25T18:01:20.548Z,2.33
2018-05-25T18:03:48.862Z,2.40
2018-05-25T18:06:17.157Z,2.70
2018-05-25T18:08:44.678Z,2.03
2018-05-25T18:11:12.229Z,2.60
2018-05-25T18:13:40.494Z,1.97
2018-05-25T18:16:08.030Z,2.70
2018-05-25T18:18:35.564Z,2.40
2018-05-25T18:21:03.070Z,2.30
2018-05-25T18:23:30.587Z,2.47
2018-05-25T18:25:58.097Z,3.00
2018-05-25T18:28:25.631Z,2.03
2018-05-25T18:30:53.941Z,2.23
2018-05-25T18:33:22.815Z,2.00
2018-05-25T18:35:50.417Z,2.10
2018-05-25T18:38:18.731Z,2.20
2018-05-25T18:40:47.086Z,2.30
2018-05-25T18:43:14.701Z,2.20
2018-05-25T18:45:42.238Z,2.77
2018-05-25T18:48:10.445Z,2.30
2018-05-25T18:50:38.045Z,2.47
2018-05-25T18:53:05.590Z,2.63
2018-05-25T18:55:33.130Z,2.67
2018-05-25T18:58:00.656Z,2.00
2018-05-25T19:00:28.211Z,2.20
2018-05-25T19:02:55.742Z,1.93
2018-05-25T19:05:23.254Z,2.70
2018-05-25T19:07:50.767Z,2.10
2018-05-25T19:10:18.294Z,2.03
2018-05-25T19:12:49.091Z,2.20
2018-05-25T19:15:16.767Z,1.97
2018-05-25T19:17:44.308Z,2.30
2018-05-25T19:20:12.589Z,2.10
2018-05-25T19:22:40.580Z,2.30
2018-05-25T19:25:08.130Z,2.00
2018-05-25T19:27:35.651Z,2.40
2018-05-25T19:30:03.924Z,2.13
2018-05-25T19:32:32.208Z,2.40
2018-05-25T19:35:00.532Z,1.90
2018-05-25T19:37:28.038Z,2.30
2018-05-25T19:39:55.555Z,2.03
2018-05-25T19:42:23.070Z,1.97
2018-05-25T19:44:50.552Z,1.67
2018-05-25T19:47:18.702Z,2.10
2018-05-25T19:49:46.964Z,2.03
2018-05-25T19:52:15.429Z,2.00
2018-05-25T19:54:45.165Z,2.00
2018-05-25T19:57:12.751Z,2.00
2018-05-25T19:59:40.931Z,2.00
2018-05-25T20:02:08.471Z,2.13
2018-05-25T20:04:37.451Z,1.80
2018-05-25T20:07:05.045Z,1.93
2018-05-25T20:09:32.561Z,2.03
2018-05-25T20:12:00.057Z,2.13
2018-05-25T20:14:27.559Z,1.90
2018-05-25T20:16:55.835Z,1.73
2018-05-25T20:19:23.376Z,2.30
2018-05-25T20:21:50.889Z,1.87
2018-05-25T20:24:18.419Z,2.17
2018-05-25T20:26:46.728Z,2.07
2018-05-25T20:29:14.264Z,2.23
2018-05-25T20:31:41.807Z,2.23
2018-05-25T20:34:09.606Z,1.90
2018-05-25T20:36:37.137Z,2.53
2018-05-25T20:39:05.446Z,2.30
2018-05-25T20:41:33.011Z,2.00
2018-05-25T20:44:00.526Z,2.17
2018-05-25T20:46:28.088Z,2.03
2018-05-25T20:51:30.258Z,2.00
2018-05-25T20:53:58.597Z,2.73
2018-05-25T20:56:26.116Z,1.93
2018-05-25T20:58:53.672Z,2.20
2018-05-25T21:01:21.163Z,2.10
2018-05-25T21:03:48.680Z,1.83
2018-05-25T21:06:16.235Z,2.40
2018-05-25T21:08:43.754Z,1.73
2018-05-25T21:11:11.974Z,2.10
2018-05-25T21:13:40.742Z,2.13
2018-05-25T21:16:08.251Z,2.10
2018-05-25T21:18:35.769Z,2.30
2018-05-25T21:21:03.276Z,2.73
2018-05-25T21:23:30.773Z,2.30
2018-05-25T21:25:58.334Z,2.23
2018-05-25T21:28:25.859Z,2.10
2018-05-25T21:30:53.375Z,2.10
2018-05-25T21:33:21.649Z,2.07
2018-05-25T21:35:49.205Z,2.10
2018-05-25T21:38:16.747Z,1.90
2018-05-25T21:43:18.992Z,1.70
2018-05-25T21:45:46.535Z,2.37
2018-05-25T21:48:14.043Z,2.00
2018-05-25T21:50:41.607Z,2.47
2018-05-25T21:53:09.119Z,1.90
2018-05-25T21:55:36.653Z,2.57
2018-05-25T21:58:04.167Z,2.10
2018-05-25T22:00:32.440Z,1.70
2018-05-25T22:02:59.964Z,2.13
2018-05-25T22:05:28.238Z,1.97
2018-05-25T22:07:55.742Z,2.20
2018-05-25T22:10:24.034Z,2.00
2018-05-25T22:12:51.557Z,2.27
2018-05-25T22:15:19.089Z,2.47
2018-05-25T22:17:46.581Z,1.93
2018-05-25T22:20:14.095Z,2.47
2018-05-25T22:22:41.678Z,2.73
2018-05-25T22:25:10.585Z,2.33
2018-05-25T22:27:38.951Z,2.20
2018-05-25T22:30:06.470Z,2.57
2018-05-25T22:32:34.808Z,2.10
2018-05-25T22:35:02.306Z,2.20
2018-05-25T22:37:29.826Z,2.60
2018-05-25T22:39:57.364Z,2.17
2018-05-25T22:42:36.649Z,2.03
2018-05-25T22:45:16.155Z,2.50
2018-05-25T22:47:56.164Z,2.20
2018-05-25T22:50:35.471Z,2.43
2018-05-25T22:53:08.866Z,2.67
2018-05-25T22:55:37.150Z,2.30
2018-05-25T22:58:04.674Z,2.90
2018-05-25T23:00:32.213Z,2.40
2018-05-25T23:02:59.769Z,3.10
2018-05-25T23:05:28.057Z,2.40
2018-05-25T23:07:55.594Z,2.93
2018-05-25T23:10:23.100Z,2.70
2018-05-25T23:12:50.628Z,2.57
2018-05-25T23:15:18.889Z,3.40
2018-05-25T23:17:46.414Z,2.80
2018-05-25T23:20:14.687Z,2.83
2018-05-25T23:22:42.218Z,2.30
2018-05-25T23:25:09.738Z,2.70
2018-05-25T23:27:38.101Z,2.40
2018-05-25T23:30:05.620Z,3.07
2018-05-25T23:35:07.398Z,2.27
2018-05-25T23:37:34.927Z,2.40
2018-05-25T23:40:02.463Z,2.50
2018-05-25T23:42:29.998Z,2.30
2018-05-25T23:44:58.290Z,2.50
2018-05-25T23:47:25.807Z,2.40
2018-05-25T23:49:53.365Z,2.37
2018-05-25T23:52:20.890Z,2.00
2018-05-25T23:54:49.182Z,2.60
2018-05-25T23:57:17.464Z,2.40
2018-05-25T23:59:44.982Z,2.60
